Time;durP1;ratioP1;P1;durP2;ratioP2;P2;SDS_P1;SDS_P2;PMS_P1;PMS_P2;Temp;Humidity;BMP_temperature;BMP_pressure;BME280_temperature;BME280_humidity;BME280_pressure;Samples;Min_cycle;Max_cycle;Signal;HPM_P1;HPM_P2
2024/01/02 00:00:37;;;;;;;6.20;2.07;;;;;2.50;93292.00;;;;7397689;19;20509;-84
2024/01/02 00:03:12;;;;;;;6.03;1.63;;;;;2.30;93287.00;;;;7397532;19;20140;-84
2024/01/02 00:05:40;;;;;;;6.33;1.70;;;;;2.30;93285.00;;;;7398227;19;20152;-84
2024/01/02 00:08:14;;;;;;;7.53;1.83;;;;;2.30;93281.00;;;;7397649;19;20642;-84
2024/01/02 00:10:44;;;;;;;4.30;1.90;;;;;2.20;93214.00;;;;7397988;19;20832;-84
2024/01/02 00:13:18;;;;;;;7.20;1.80;;;;;2.50;93276.00;;;;7398558;19;20166;-84
2024/01/02 00:15:47;;;;;;;7.63;1.87;;;;;2.40;93271.00;;;;7397816;19;20161;-84
2024/01/02 00:18:20;;;;;;;5.97;2.07;;;;;2.30;93270.00;;;;7400120;19;20580;-84
2024/01/02 00:20:58;;;;;;;1.83;0.80;;;;;2.70;93267.00;;;;7399507;19;20149;-84
2024/01/02 00:23:37;;;;;;;11.33;1.97;;;;;2.90;93246.00;;;;7397898;19;20200;-84
2024/01/02 00:26:12;;;;;;;3.93;1.30;;;;;2.80;93245.00;;;;7398450;19;20164;-83
2024/01/02 00:28:46;;;;;;;3.80;1.20;;;;;3.10;93234.00;;;;7396739;19;20658;-83
2024/01/02 00:31:15;;;;;;;3.27;1.90;;;;;2.90;93236.00;;;;7399169;19;20211;-84
2024/01/02 00:33:55;;;;;;;4.57;0.90;;;;;3.30;93229.00;;;;7397719;19;20171;-84
2024/01/02 00:36:24;;;;;;;2.63;0.80;;;;;3.70;93226.00;;;;7397299;19;20142;-84
2024/01/02 00:38:58;;;;;;;0.80;0.70;;;;;3.90;93207.00;;;;7397632;19;20132;-84
2024/01/02 00:41:25;;;;;;;1.33;0.87;;;;;3.90;93212.00;;;;7397626;19;20157;-83
2024/01/02 00:44:00;;;;;;;1.47;0.50;;;;;4.20;93204.00;;;;7397440;19;20132;-84
2024/01/02 00:46:27;;;;;;;2.50;0.83;;;;;4.00;93197.00;;;;7397219;19;20160;-84
2024/01/02 00:49:06;;;;;;;2.43;0.70;;;;;4.20;93194.00;;;;7397682;19;20136;-83
2024/01/02 00:51:40;;;;;;;0.73;0.50;;;;;4.10;93191.00;;;;7398086;19;20264;-84
2024/01/02 00:54:14;;;;;;;1.50;0.60;;;;;4.30;93188.00;;;;7398095;19;20274;-84
2024/01/02 00:56:41;;;;;;;0.93;0.60;;;;;4.30;93194.00;;;;7399035;19;20189;-83
2024/01/02 00:59:20;;;;;;;1.50;0.70;;;;;4.50;93171.00;;;;7398725;19;20132;-84
2024/01/02 01:01:53;;;;;;;1.17;0.40;;;;;4.50;93168.00;;;;7398432;19;20448;-84
2024/01/02 01:04:29;;;;;;;1.33;0.40;;;;;4.30;93179.00;;;;7398149;19;20157;-79
2024/01/02 01:06:57;;;;;;;0.83;0.40;;;;;4.50;93185.00;;;;7396605;19;20455;-80
2024/01/02 01:09:31;;;;;;;1.73;0.60;;;;;4.50;93180.00;;;;7394972;19;20145;-79
2024/01/02 01:11:58;;;;;;;2.27;0.87;;;;;4.50;93173.00;;;;7394458;19;20161;-79
2024/01/02 01:14:33;;;;;;;1.23;0.50;;;;;4.50;93175.00;;;;7395413;19;20143;-79
2024/01/02 01:17:01;;;;;;;0.80;0.57;;;;;4.40;93176.00;;;;7397851;19;20149;-79
2024/01/02 01:19:29;;;;;;;4.37;0.67;;;;;4.40;93172.00;;;;7397525;19;20137;-80
2024/01/02 01:22:03;;;;;;;0.57;0.40;;;;;4.30;93159.00;;;;7395972;19;20607;-79
2024/01/02 01:24:38;;;;;;;0.70;0.40;;;;;4.30;93158.00;;;;7395729;19;20155;-78
2024/01/02 01:27:10;;;;;;;3.30;0.90;;;;;4.20;93156.00;;;;7404083;19;20131;-79
2024/01/02 01:29:44;;;;;;;1.23;0.60;;;;;4.20;93166.00;;;;7403542;19;20622;-79
2024/01/02 01:32:13;;;;;;;1.47;0.57;;;;;4.00;93166.00;;;;7404793;19;20192;-78
2024/01/02 01:34:53;;;;;;;2.43;0.73;;;;;4.10;93162.00;;;;7401268;19;20490;-80
2024/01/02 01:37:25;;;;;;;0.57;0.50;;;;;4.00;93147.00;;;;7402447;19;20133;-80
2024/01/02 01:40:02;;;;;;;1.43;0.53;;;;;4.10;93153.00;;;;7402286;19;20149;-81
2024/01/02 01:42:30;;;;;;;1.30;0.47;;;;;3.90;93153.00;;;;7399946;19;20149;-78
2024/01/02 01:45:04;;;;;;;1.77;0.57;;;;;3.80;93146.00;;;;7400423;19;20141;-81
2024/01/02 01:47:32;;;;;;;2.30;0.70;;;;;3.80;93096.00;;;;7401944;19;20145;-81
2024/01/02 01:50:06;;;;;;;2.43;0.50;;;;;3.70;93138.00;;;;7401707;19;20602;-81
2024/01/02 01:52:35;;;;;;;0.50;0.47;;;;;3.70;93140.00;;;;7403322;19;20137;-80
2024/01/02 01:55:10;;;;;;;0.83;0.40;;;;;3.60;93132.00;;;;7401091;19;20144;-80
2024/01/02 01:57:45;;;;;;;0.33;0.27;;;;;3.60;93135.00;;;;7401826;19;20608;-80
2024/01/02 02:00:21;;;;;;;0.93;0.40;;;;;3.60;93131.00;;;;7401772;19;20534;-80
2024/01/02 02:02:57;;;;;;;1.10;0.43;;;;;3.50;93129.00;;;;7401000;19;20222;-79
2024/01/02 02:05:34;;;;;;;1.00;0.60;;;;;3.60;93125.00;;;;7403939;19;20160;-81
2024/01/02 02:08:08;;;;;;;2.67;0.53;;;;;3.50;93114.00;;;;7402407;19;20466;-79
2024/01/02 02:10:42;;;;;;;2.30;0.73;;;;;3.60;93118.00;;;;7401850;19;20581;-80
2024/01/02 02:13:19;;;;;;;1.60;0.70;;;;;3.60;93104.00;;;;7401651;19;20168;-79
2024/01/02 02:15:48;;;;;;;1.90;0.40;;;;;3.60;93099.00;;;;7399749;19;20121;-83
2024/01/02 02:18:22;;;;;;;0.70;0.50;;;;;3.60;93099.00;;;;7401693;19;20145;-83
2024/01/02 02:20:57;;;;;;;0.97;0.50;;;;;3.60;93085.00;;;;7400435;19;20141;-83
2024/01/02 02:23:31;;;;;;;0.50;0.50;;;;;3.70;93083.00;;;;7401206;19;20157;-83
2024/01/02 02:25:59;;;;;;;1.67;0.80;;;;;3.60;93079.00;;;;7401000;19;20624;-83
2024/01/02 02:28:26;;;;;;;0.87;0.50;;;;;3.70;93082.00;;;;7400594;19;20596;-83
2024/01/02 02:31:01;;;;;;;4.20;0.80;;;;;3.70;93076.00;;;;7402773;19;20161;-84
2024/01/02 02:33:30;;;;;;;0.53;0.43;;;;;3.70;93059.00;;;;7400885;19;20170;-83
2024/01/02 02:36:12;;;;;;;1.13;0.60;;;;;3.60;93050.00;;;;7398833;19;20642;-83
2024/01/02 02:38:47;;;;;;;2.63;0.50;;;;;3.70;93049.00;;;;7399014;19;20144;-83
2024/01/02 02:41:21;;;;;;;1.53;0.53;;;;;3.70;93039.00;;;;7401215;19;20143;-85
2024/01/02 02:43:55;;;;;;;1.83;0.50;;;;;3.70;93043.00;;;;7400476;19;20171;-85
2024/01/02 02:46:23;;;;;;;0.40;0.40;;;;;3.70;93034.00;;;;7401171;19;20143;-85
2024/01/02 02:48:57;;;;;;;2.70;0.90;;;;;3.70;93041.00;;;;7399815;19;20147;-84
2024/01/02 02:51:25;;;;;;;2.80;0.73;;;;;3.80;93036.00;;;;7401503;19;20157;-84
2024/01/02 02:54:01;;;;;;;1.60;0.70;;;;;3.80;93027.00;;;;7401067;19;20152;-85
2024/01/02 02:56:29;;;;;;;0.40;0.40;;;;;3.70;93027.00;;;;7399226;19;20137;-85
2024/01/02 02:59:03;;;;;;;1.37;0.37;;;;;3.70;93015.00;;;;7401364;19;20155;-85
2024/01/02 03:01:38;;;;;;;0.77;0.40;;;;;3.70;93013.00;;;;7401104;19;20537;-85
2024/01/02 03:04:12;;;;;;;1.57;0.60;;;;;3.70;93002.00;;;;7401816;19;20125;-85
2024/01/02 03:06:48;;;;;;;0.63;0.50;;;;;3.70;93014.00;;;;7403073;19;20132;-84
2024/01/02 03:09:23;;;;;;;2.03;0.67;;;;;3.70;92998.00;;;;7399965;19;20155;-84
2024/01/02 03:11:51;;;;;;;0.70;0.47;;;;;3.70;92992.00;;;;7398381;19;20178;-84
2024/01/02 03:14:25;;;;;;;1.83;0.50;;;;;3.70;92987.00;;;;7399927;19;20141;-86
2024/01/02 03:16:53;;;;;;;2.73;0.60;;;;;3.70;92982.00;;;;7398633;19;20588;-85
2024/01/02 03:19:29;;;;;;;0.73;0.40;;;;;3.70;92968.00;;;;7398840;19;20148;-85
2024/01/02 03:22:01;;;;;;;0.90;0.50;;;;;3.70;92963.00;;;;7397827;19;20211;-84
2024/01/02 03:24:36;;;;;;;0.77;0.60;;;;;3.80;92958.00;;;;7399200;19;20238;-85
2024/01/02 03:27:10;;;;;;;0.37;0.30;;;;;3.70;92955.00;;;;7398266;19;20152;-84
2024/01/02 03:29:45;;;;;;;1.10;0.80;;;;;3.70;92941.00;;;;7398124;19;20144;-85
2024/01/02 03:32:19;;;;;;;2.27;0.33;;;;;3.70;92938.00;;;;7398370;19;20148;-84
2024/01/02 03:35:00;;;;;;;1.00;0.43;;;;;3.60;92935.00;;;;7395149;19;20174;-85
2024/01/02 03:37:35;;;;;;;0.63;0.30;;;;;3.60;92935.00;;;;7398626;19;20200;-84
2024/01/02 03:40:03;;;;;;;0.80;0.40;;;;;3.60;92920.00;;;;7398789;19;20503;-84
2024/01/02 03:42:37;;;;;;;0.83;0.40;;;;;3.60;92914.00;;;;7399290;19;20144;-85
2024/01/02 03:45:05;;;;;;;0.63;0.57;;;;;3.60;92914.00;;;;7398083;19;20128;-84
2024/01/02 03:47:38;;;;;;;0.30;0.30;;;;;3.60;92905.00;;;;7397660;19;20588;-85
2024/01/02 03:50:13;;;;;;;0.70;0.40;;;;;3.60;92912.00;;;;7399317;19;20441;-85
2024/01/02 03:52:48;;;;;;;0.70;0.40;;;;;3.50;92902.00;;;;7399268;19;20290;-86
2024/01/02 03:55:15;;;;;;;0.20;0.20;;;;;3.50;92894.00;;;;7397366;19;20129;-85
2024/01/02 03:57:49;;;;;;;0.27;0.20;;;;;3.50;92901.00;;;;7398442;19;20147;-84
2024/01/02 04:00:17;;;;;;;2.67;0.20;;;;;3.50;92885.00;;;;7398310;19;20598;-85
2024/01/02 04:02:52;;;;;;;0.50;0.40;;;;;3.60;92883.00;;;;7398487;19;20148;-85
2024/01/02 04:05:20;;;;;;;0.10;0.10;;;;;3.50;92878.00;;;;7398505;19;20155;-82
2024/01/02 04:07:54;;;;;;;1.60;0.20;;;;;3.50;92881.00;;;;7398530;19;20472;-84
2024/01/02 04:10:21;;;;;;;0.60;0.40;;;;;3.50;92881.00;;;;7397917;19;20144;-84
2024/01/02 04:12:56;;;;;;;1.90;0.43;;;;;3.50;92879.00;;;;7396758;19;20551;-85
2024/01/02 04:15:23;;;;;;;0.20;0.20;;;;;3.50;92855.00;;;;7396930;19;20153;-85
2024/01/02 04:17:58;;;;;;;1.00;0.37;;;;;3.50;92861.00;;;;7398573;19;20132;-85
2024/01/02 04:20:36;;;;;;;0.20;0.10;;;;;3.60;92848.00;;;;7398148;19;20595;-84
2024/01/02 04:23:11;;;;;;;0.20;0.20;;;;;3.60;92857.00;;;;7396600;19;20602;-84
2024/01/02 04:25:38;;;;;;;0.83;0.27;;;;;3.60;92839.00;;;;7397449;19;20462;-84
2024/01/02 04:28:12;;;;;;;0.63;0.20;;;;;3.60;92847.00;;;;7397369;19;20516;-86
2024/01/02 04:30:40;;;;;;;0.20;0.17;;;;;3.60;92848.00;;;;7397789;19;20161;-84
2024/01/02 04:33:08;;;;;;;0.10;0.10;;;;;3.60;92841.00;;;;7398427;19;20160;-84
2024/01/02 04:35:49;;;;;;;0.27;0.10;;;;;3.60;92816.00;;;;7397342;19;20596;-84
2024/01/02 04:38:32;;;;;;;0.60;0.17;;;;;3.60;92819.00;;;;7399354;19;20200;-86
2024/01/02 04:41:14;;;;;;;0.20;0.20;;;;;3.60;92819.00;;;;7399190;19;20509;-83
2024/01/02 04:43:49;;;;;;;0.13;0.13;;;;;3.60;92825.00;;;;7397127;19;20141;-84
2024/01/02 04:46:20;;;;;;;0.43;0.20;;;;;3.60;92802.00;;;;7398213;19;20132;-84
2024/01/02 04:48:48;;;;;;;0.10;0.10;;;;;3.60;92795.00;;;;7397208;19;20132;-85
2024/01/02 04:51:22;;;;;;;0.10;0.10;;;;;3.60;92790.00;;;;7397506;19;20610;-83
2024/01/02 04:53:58;;;;;;;0.97;0.20;;;;;3.70;92794.00;;;;7397739;19;20600;-83
2024/01/02 04:56:32;;;;;;;0.10;0.00;;;;;3.60;92782.00;;;;7397528;19;20127;-85
2024/01/02 04:59:06;;;;;;;0.23;0.10;;;;;3.70;92791.00;;;;7396322;19;20151;-83
2024/01/02 05:01:41;;;;;;;0.00;0.00;;;;;3.70;92781.00;;;;7401901;19;20464;-84
2024/01/02 05:04:11;;;;;;;0.10;0.10;;;;;3.70;92780.00;;;;7404208;19;20628;-84
2024/01/02 05:06:47;;;;;;;1.40;0.10;;;;;3.70;92781.00;;;;7403512;19;20502;-83
2024/01/02 05:09:20;;;;;;;0.00;0.00;;;;;3.70;92774.00;;;;7405130;19;20132;-83
2024/01/02 05:11:56;;;;;;;0.60;0.20;;;;;3.70;92769.00;;;;7402748;19;20168;-85
2024/01/02 05:14:30;;;;;;;2.70;0.20;;;;;3.80;92764.00;;;;7403427;19;20141;-82
2024/01/02 05:17:09;;;;;;;0.30;0.10;;;;;3.80;92766.00;;;;7400557;19;20466;-83
2024/01/02 05:19:43;;;;;;;0.53;0.30;;;;;3.70;92759.00;;;;7402698;19;20153;-82
2024/01/02 05:22:17;;;;;;;0.17;0.10;;;;;3.80;92751.00;;;;7404458;19;20137;-82
2024/01/02 05:24:45;;;;;;;0.53;0.10;;;;;3.90;92747.00;;;;7403383;19;20144;-83
2024/01/02 05:27:21;;;;;;;0.20;0.20;;;;;3.90;92751.00;;;;7384946;19;20156;-82
2024/01/02 05:29:50;;;;;;;0.30;0.10;;;;;3.90;92752.00;;;;7401054;19;20173;-82
2024/01/02 05:32:24;;;;;;;0.10;0.10;;;;;3.90;92749.00;;;;7398793;19;20147;-82
2024/01/02 05:35:05;;;;;;;0.37;0.17;;;;;3.80;92758.00;;;;7398216;19;20268;-83
2024/01/02 05:37:33;;;;;;;0.00;0.00;;;;;3.90;92746.00;;;;7398224;19;20132;-82
2024/01/02 05:40:09;;;;;;;1.07;0.20;;;;;3.90;92728.00;;;;7400934;19;20160;-81
2024/01/02 05:42:46;;;;;;;0.73;0.10;;;;;4.00;92726.00;;;;7401040;19;20493;-83
2024/01/02 05:45:20;;;;;;;0.20;0.20;;;;;4.00;92730.00;;;;7397803;19;20492;-81
2024/01/02 05:47:48;;;;;;;0.10;0.10;;;;;4.00;92721.00;;;;7402410;19;20238;-81
2024/01/02 05:50:26;;;;;;;0.10;0.10;;;;;4.00;92720.00;;;;7401626;19;20278;-81
2024/01/02 05:53:00;;;;;;;0.10;0.10;;;;;4.00;92719.00;;;;7404672;19;20462;-80
2024/01/02 05:55:37;;;;;;;0.20;0.20;;;;;4.10;92706.00;;;;7402786;19;20128;-81
2024/01/02 05:58:12;;;;;;;1.50;0.10;;;;;4.10;92708.00;;;;7402399;19;20136;-82
2024/01/02 06:00:49;;;;;;;0.23;0.10;;;;;4.10;92702.00;;;;7403890;19;20604;-83
2024/01/02 06:03:23;;;;;;;0.50;0.33;;;;;4.10;92701.00;;;;7403067;19;20583;-81
2024/01/02 06:05:57;;;;;;;0.20;0.20;;;;;4.20;92692.00;;;;7406935;19;20133;-83
2024/01/02 06:08:31;;;;;;;0.10;0.10;;;;;4.10;92710.00;;;;7405443;19;20124;-83
2024/01/02 06:11:06;;;;;;;1.07;0.47;;;;;4.10;92707.00;;;;7402846;19;20180;-81
2024/01/02 06:13:40;;;;;;;0.10;0.10;;;;;4.20;92694.00;;;;7401044;19;20136;-80
2024/01/02 06:16:10;;;;;;;0.43;0.20;;;;;4.20;92719.00;;;;7402779;19;20125;-82
2024/01/02 06:18:46;;;;;;;0.10;0.10;;;;;4.20;92708.00;;;;7404219;19;20165;-81
2024/01/02 06:21:22;;;;;;;0.53;0.20;;;;;4.30;92726.00;;;;7406762;19;20148;-84
2024/01/02 06:23:50;;;;;;;0.43;0.20;;;;;4.30;92703.00;;;;7403076;19;20144;-81
2024/01/02 06:26:24;;;;;;;0.00;0.00;;;;;4.30;92706.00;;;;7399039;19;20146;-82
2024/01/02 06:28:53;;;;;;;0.10;0.10;;;;;4.30;92688.00;;;;7396860;19;20145;-81
2024/01/02 06:31:27;;;;;;;0.10;0.10;;;;;4.30;92686.00;;;;7396648;19;20520;-81
2024/01/02 06:34:02;;;;;;;0.33;0.30;;;;;4.30;92682.00;;;;7397304;19;20628;-82
2024/01/02 06:36:43;;;;;;;0.10;0.00;;;;;4.30;92687.00;;;;7396926;19;20136;-82
2024/01/02 06:39:17;;;;;;;0.10;0.10;;;;;4.30;92688.00;;;;7396278;19;20133;-82
2024/01/02 06:41:51;;;;;;;0.83;0.27;;;;;4.30;92679.00;;;;7397407;19;20498;-81
2024/01/02 06:44:19;;;;;;;0.10;0.10;;;;;4.30;92679.00;;;;7400177;19;20125;-82
2024/01/02 06:46:54;;;;;;;0.10;0.07;;;;;4.30;92682.00;;;;7400670;19;20159;-80
2024/01/02 06:49:35;;;;;;;0.93;0.13;;;;;4.40;92686.00;;;;7402040;19;20159;-80
2024/01/02 06:52:10;;;;;;;0.00;0.00;;;;;4.40;92687.00;;;;7404049;19;20157;-85
2024/01/02 06:54:45;;;;;;;0.00;0.00;;;;;4.40;92670.00;;;;7401949;19;20149;-81
2024/01/02 06:57:13;;;;;;;0.07;0.07;;;;;4.40;92683.00;;;;7398306;19;20608;-81
2024/01/02 06:59:45;;;;;;;0.10;0.10;;;;;4.40;92688.00;;;;7401231;19;20136;-82
2024/01/02 07:02:21;;;;;;;0.10;0.10;;;;;4.40;92682.00;;;;7401696;19;20141;-81
2024/01/02 07:04:49;;;;;;;0.17;0.00;;;;;4.40;92677.00;;;;7398355;19;20466;-81
2024/01/02 07:07:25;;;;;;;0.43;0.10;;;;;4.50;92687.00;;;;7404526;19;20592;-82
2024/01/02 07:09:53;;;;;;;0.07;0.07;;;;;4.50;92703.00;;;;7406654;19;20141;-83
2024/01/02 07:12:30;;;;;;;0.10;0.10;;;;;4.50;92694.00;;;;7410041;19;20148;-81
2024/01/02 07:15:01;;;;;;;1.33;0.20;;;;;4.60;92685.00;;;;7408522;19;20148;-80
2024/01/02 07:17:35;;;;;;;0.27;0.20;;;;;4.50;92708.00;;;;7411863;19;20133;-80
2024/01/02 07:20:10;;;;;;;0.17;0.10;;;;;4.50;92688.00;;;;7413217;19;20148;-79
2024/01/02 07:22:48;;;;;;;0.37;0.10;;;;;4.60;92694.00;;;;7415186;19;20148;-81
2024/01/02 07:25:16;;;;;;;0.10;0.10;;;;;4.60;92705.00;;;;7416954;19;20204;-84
2024/01/02 07:27:48;;;;;;;0.13;0.13;;;;;4.60;92699.00;;;;7418256;19;20137;-83
2024/01/02 07:30:22;;;;;;;0.33;0.10;;;;;4.60;92704.00;;;;7415187;19;20141;-82
2024/01/02 07:32:50;;;;;;;0.00;0.00;;;;;4.60;92702.00;;;;7410507;19;20152;-82
2024/01/02 07:35:30;;;;;;;0.10;0.10;;;;;4.70;92715.00;;;;7405007;19;20643;-83
2024/01/02 07:37:59;;;;;;;0.10;0.10;;;;;4.70;92727.00;;;;7409336;19;20164;-81
2024/01/02 07:40:36;;;;;;;0.10;0.07;;;;;4.70;92709.00;;;;7409033;19;20120;-83
2024/01/02 07:43:11;;;;;;;0.23;0.10;;;;;4.70;92723.00;;;;7407772;19;20152;-81
2024/01/02 07:45:46;;;;;;;0.00;0.00;;;;;4.70;92714.00;;;;7406906;19;20147;-82
2024/01/02 07:48:23;;;;;;;0.00;0.00;;;;;4.80;92731.00;;;;7405871;19;20156;-81
2024/01/02 07:50:58;;;;;;;0.00;0.00;;;;;4.70;92734.00;;;;7408089;19;20184;-83
2024/01/02 07:53:25;;;;;;;0.20;0.20;;;;;4.80;92728.00;;;;7409974;19;20502;-80
2024/01/02 07:56:04;;;;;;;0.20;0.10;;;;;4.70;92720.00;;;;7407694;19;20176;-80
2024/01/02 07:58:32;;;;;;;0.00;0.00;;;;;4.80;92728.00;;;;7410565;19;20125;-80
2024/01/02 08:01:16;;;;;;;0.10;0.10;;;;;4.80;92718.00;;;;7407198;19;20137;-81
2024/01/02 08:03:45;;;;;;;0.17;0.17;;;;;4.90;92727.00;;;;7419742;19;20165;-83
2024/01/02 08:06:20;;;;;;;0.00;0.00;;;;;4.90;92720.00;;;;7418758;19;20135;-84
2024/01/02 08:08:51;;;;;;;0.10;0.00;;;;;4.90;92708.00;;;;7392109;19;20164;-80
2024/01/02 08:11:25;;;;;;;0.10;0.00;;;;;4.90;92702.00;;;;7395513;19;20180;-79
2024/01/02 08:13:53;;;;;;;0.97;0.13;;;;;4.90;92711.00;;;;7397564;19;20168;-81
2024/01/02 08:16:27;;;;;;;0.40;0.10;;;;;5.00;92718.00;;;;7395325;19;20172;-80
2024/01/02 08:19:11;;;;;;;0.00;0.00;;;;;5.00;92696.00;;;;7395005;19;20140;-80
2024/01/02 08:21:39;;;;;;;0.10;0.10;;;;;5.00;92718.00;;;;7394000;19;20147;-79
2024/01/02 08:24:14;;;;;;;0.63;0.40;;;;;5.00;92723.00;;;;7392796;19;20129;-80
2024/01/02 08:26:48;;;;;;;0.47;0.10;;;;;5.00;92715.00;;;;7395622;19;20607;-79
2024/01/02 08:29:22;;;;;;;0.63;0.00;;;;;5.00;92721.00;;;;7397324;19;20163;-79
2024/01/02 08:31:50;;;;;;;0.10;0.07;;;;;5.00;92706.00;;;;7394933;19;20183;-80
2024/01/02 08:34:35;;;;;;;0.10;0.10;;;;;5.00;92723.00;;;;7406601;19;20152;-84
2024/01/02 08:37:09;;;;;;;2.40;0.60;;;;;5.10;92715.00;;;;7410205;19;20144;-81
2024/01/02 08:39:43;;;;;;;0.00;0.00;;;;;5.10;92704.00;;;;7412451;19;20148;-81
2024/01/02 08:42:17;;;;;;;0.10;0.10;;;;;5.10;92625.00;;;;7410959;19;20151;-79
2024/01/02 08:44:51;;;;;;;0.00;0.00;;;;;5.10;92704.00;;;;7417162;19;20545;-85
2024/01/02 08:47:25;;;;;;;0.00;0.00;;;;;5.10;92689.00;;;;7424278;19;20149;-88
2024/01/02 08:50:00;;;;;;;0.10;0.00;;;;;5.10;92693.00;;;;7424064;19;20145;-84
2024/01/02 08:52:29;;;;;;;0.00;0.00;;;;;5.20;92697.00;;;;7413952;19;20520;-81
2024/01/02 08:54:57;;;;;;;0.50;0.03;;;;;5.20;92706.00;;;;7415547;19;20632;-84
2024/01/02 08:57:32;;;;;;;0.10;0.10;;;;;5.30;92706.00;;;;7420748;19;20667;-83
2024/01/02 09:00:08;;;;;;;0.10;0.00;;;;;5.30;92720.00;;;;7423705;19;20142;-83
2024/01/02 09:02:39;;;;;;;0.00;0.00;;;;;5.30;92717.00;;;;7423721;19;20169;-85
2024/01/02 09:05:13;;;;;;;0.40;0.10;;;;;5.30;92696.00;;;;7418860;19;20151;-84
2024/01/02 09:07:47;;;;;;;0.00;0.00;;;;;5.30;92699.00;;;;7419320;19;20155;-88
2024/01/02 09:10:23;;;;;;;0.00;0.00;;;;;5.40;92708.00;;;;7422888;19;20152;-85
2024/01/02 09:12:51;;;;;;;0.00;0.00;;;;;5.50;92733.00;;;;7413753;19;20283;-86
2024/01/02 09:15:26;;;;;;;0.10;0.00;;;;;5.40;92713.00;;;;7420029;19;20140;-89
2024/01/02 09:17:54;;;;;;;0.00;0.00;;;;;5.50;92722.00;;;;7424360;19;20173;-87
2024/01/02 09:20:34;;;;;;;0.10;0.10;;;;;5.50;92741.00;;;;7423541;19;20172;-86
2024/01/02 09:23:03;;;;;;;0.00;0.00;;;;;5.60;92736.00;;;;7418923;19;20148;-86
2024/01/02 09:25:44;;;;;;;0.10;0.00;;;;;5.60;92731.00;;;;7422533;19;20199;-86
2024/01/02 09:28:20;;;;;;;0.00;0.00;;;;;5.60;92742.00;;;;7422160;19;20132;-87
2024/01/02 09:30:49;;;;;;;0.10;0.10;;;;;5.60;92738.00;;;;7423603;19;20137;-86
2024/01/02 09:33:30;;;;;;;0.00;0.00;;;;;5.60;92744.00;;;;7423174;19;20152;-88
2024/01/02 09:36:08;;;;;;;0.07;0.03;;;;;5.70;92744.00;;;;7425700;19;20136;-91
2024/01/02 09:38:43;;;;;;;1.80;0.20;;;;;5.70;92743.00;;;;7425660;19;20148;-92
2024/01/02 09:41:48;;;;;;;0.00;0.00;;;;;5.70;92738.00;;;;7425519;19;20151;-83
2024/01/02 09:44:30;;;;;;;0.00;0.00;;;;;5.70;92721.00;;;;7421525;19;20603;-84
2024/01/02 09:47:25;;;;;;;0.10;0.10;;;;;5.80;92731.00;;;;7421554;19;20132;-83
2024/01/02 09:50:58;;;;;;;0.83;0.50;;;;;5.80;92738.00;;;;7424117;19;20199;-85
2024/01/02 09:53:54;;;;;;;0.53;0.10;;;;;5.80;92734.00;;;;7418939;19;20157;-90
2024/01/02 09:57:15;;;;;;;0.00;0.00;;;;;5.90;92751.00;;;;7422515;19;20562;-87
2024/01/02 10:00:32;;;;;;;0.00;0.00;;;;;5.90;92732.00;;;;7414836;19;20154;-83
2024/01/02 10:03:22;;;;;;;0.00;0.00;;;;;5.90;92749.00;;;;7406768;19;20152;-83
2024/01/02 10:06:15;;;;;;;0.10;0.03;;;;;5.90;92750.00;;;;7414828;19;20141;-87
2024/01/02 10:09:19;;;;;;;0.10;0.10;;;;;5.90;92749.00;;;;7412702;19;20136;-88
2024/01/02 10:12:27;;;;;;;0.00;0.00;;;;;6.00;92741.00;;;;7410715;19;20172;-90
2024/01/02 10:15:35;;;;;;;0.63;0.10;;;;;6.00;92755.00;;;;7399477;19;20149;-89
2024/01/02 10:18:40;;;;;;;0.10;0.00;;;;;6.10;92739.00;;;;7393195;19;20619;-87
2024/01/02 10:21:56;;;;;;;0.63;0.10;;;;;5.90;92739.00;;;;7394259;19;20152;-87
2024/01/02 10:25:04;;;;;;;0.40;0.10;;;;;6.00;92726.00;;;;7394802;19;20172;-87
2024/01/02 10:28:02;;;;;;;0.00;0.00;;;;;6.00;92725.00;;;;7402194;19;20596;-86
2024/01/02 10:31:23;;;;;;;0.20;0.10;;;;;6.00;92726.00;;;;7389607;19;20133;-84
2024/01/02 10:34:30;;;;;;;0.73;0.33;;;;;6.00;92720.00;;;;7384233;19;20500;-83
2024/01/02 10:37:04;;;;;;;0.10;0.10;;;;;6.10;92723.00;;;;7411526;19;20140;-85
2024/01/02 10:40:00;;;;;;;0.10;0.10;;;;;6.20;92715.00;;;;7409574;19;20142;-86
2024/01/02 10:43:15;;;;;;;0.10;0.10;;;;;6.10;92711.00;;;;7401702;19;20140;-89
2024/01/02 10:46:05;;;;;;;0.00;0.00;;;;;6.20;92710.00;;;;7398692;19;20151;-87
2024/01/02 10:49:00;;;;;;;0.00;0.00;;;;;6.20;92697.00;;;;7402104;19;20498;-86
2024/01/02 10:51:45;;;;;;;0.10;0.10;;;;;6.20;92695.00;;;;7399662;19;20159;-86
2024/01/02 10:54:53;;;;;;;1.40;0.10;;;;;6.20;92695.00;;;;7402973;19;20163;-86
2024/01/02 10:58:06;;;;;;;1.50;0.10;;;;;6.10;92681.00;;;;7398710;19;20147;-87
2024/01/02 11:01:04;;;;;;;0.10;0.10;;;;;6.20;92684.00;;;;7411094;19;20137;-85
2024/01/02 11:03:51;;;;;;;0.20;0.20;;;;;6.20;92681.00;;;;7412292;19;20147;-85
2024/01/02 11:06:44;;;;;;;0.70;0.10;;;;;6.30;92685.00;;;;7417307;19;20156;-87
2024/01/02 11:09:26;;;;;;;0.17;0.17;;;;;6.40;92677.00;;;;7419244;19;20144;-86
2024/01/02 11:12:06;;;;;;;0.43;0.17;;;;;6.30;92668.00;;;;7420665;19;20171;-89
2024/01/02 11:14:45;;;;;;;0.30;0.20;;;;;6.30;92665.00;;;;7419969;19;20117;-86
2024/01/02 11:17:25;;;;;;;0.37;0.30;;;;;6.40;92647.00;;;;7420379;19;20135;-85
2024/01/02 11:20:13;;;;;;;0.20;0.20;;;;;6.40;92630.00;;;;7420332;19;20148;-88
2024/01/02 11:22:59;;;;;;;0.20;0.10;;;;;6.40;92633.00;;;;7419482;19;20199;-87
2024/01/02 11:25:49;;;;;;;1.17;0.00;;;;;6.40;92623.00;;;;7418642;19;20144;-86
2024/01/02 11:28:39;;;;;;;0.00;0.00;;;;;6.50;92622.00;;;;7417157;19;20144;-87
2024/01/02 11:31:15;;;;;;;0.10;0.10;;;;;6.50;92627.00;;;;7417646;19;20178;-84
2024/01/02 11:34:26;;;;;;;0.50;0.10;;;;;6.60;92605.00;;;;7417779;19;20137;-85
2024/01/02 11:37:26;;;;;;;0.10;0.10;;;;;6.60;92605.00;;;;7421498;19;20144;-86
2024/01/02 11:40:32;;;;;;;0.13;0.10;;;;;6.60;92610.00;;;;7417461;19;20161;-84
2024/01/02 11:43:14;;;;;;;0.00;0.00;;;;;6.60;92605.00;;;;7417451;19;20129;-88
2024/01/02 11:45:59;;;;;;;0.30;0.17;;;;;6.60;92610.00;;;;7420485;19;20141;-85
2024/01/02 11:48:56;;;;;;;0.10;0.10;;;;;6.70;92587.00;;;;7417439;19;20166;-85
2024/01/02 11:51:35;;;;;;;0.10;0.10;;;;;6.70;92591.00;;;;7421885;19;20143;-83
2024/01/02 11:54:43;;;;;;;0.10;0.10;;;;;6.70;92577.00;;;;7420116;19;20168;-84
2024/01/02 11:58:01;;;;;;;0.30;0.30;;;;;6.60;92570.00;;;;7418426;19;20999;-84
2024/01/02 12:00:46;;;;;;;0.03;0.00;;;;;6.70;92567.00;;;;7419756;19;20166;-84
2024/01/02 12:03:38;;;;;;;3.00;0.27;;;;;6.60;92572.00;;;;7419309;19;20631;-84
2024/01/02 12:06:24;;;;;;;0.00;0.00;;;;;6.70;92566.00;;;;7421100;19;20526;-85
2024/01/02 12:09:09;;;;;;;0.63;0.20;;;;;6.60;92555.00;;;;7422136;19;20164;-83
2024/01/02 12:11:47;;;;;;;0.40;0.40;;;;;6.50;92555.00;;;;7419987;19;20159;-84
2024/01/02 12:14:43;;;;;;;0.10;0.10;;;;;6.50;92548.00;;;;7416164;19;20133;-82
2024/01/02 12:17:15;;;;;;;0.20;0.20;;;;;6.50;92554.00;;;;7407249;19;20144;-82
2024/01/02 12:20:03;;;;;;;0.10;0.10;;;;;6.60;92548.00;;;;7411404;19;20173;-82
2024/01/02 12:22:39;;;;;;;0.43;0.20;;;;;6.50;92547.00;;;;7409603;19;20156;-81
2024/01/02 12:25:07;;;;;;;1.03;0.23;;;;;6.40;92532.00;;;;7406301;19;20136;-82
2024/01/02 12:27:46;;;;;;;0.50;0.10;;;;;6.50;92545.00;;;;7407749;19;20143;-85
2024/01/02 12:30:36;;;;;;;0.33;0.20;;;;;6.40;92539.00;;;;7407219;19;20169;-84
2024/01/02 12:33:22;;;;;;;0.30;0.20;;;;;6.60;92523.00;;;;7410950;19;20276;-82
2024/01/02 12:36:07;;;;;;;0.40;0.17;;;;;6.60;92528.00;;;;7387803;19;20195;-84
2024/01/02 12:38:48;;;;;;;1.00;0.20;;;;;6.50;92529.00;;;;7371693;19;20156;-83
2024/01/02 12:41:28;;;;;;;0.40;0.40;;;;;6.40;92528.00;;;;7371199;19;20140;-84
2024/01/02 12:44:02;;;;;;;0.20;0.20;;;;;6.40;92533.00;;;;7371556;19;21194;-84
2024/01/02 12:47:16;;;;;;;0.30;0.23;;;;;6.50;92526.00;;;;7376369;19;20159;-84
2024/01/02 12:50:02;;;;;;;0.17;0.10;;;;;6.50;92523.00;;;;7372426;19;20600;-82
2024/01/02 12:52:46;;;;;;;0.27;0.20;;;;;6.60;92519.00;;;;7375385;19;23317;-82
2024/01/02 12:55:18;;;;;;;0.60;0.30;;;;;6.50;92523.00;;;;7371026;19;20208;-82
2024/01/02 12:57:53;;;;;;;0.20;0.20;;;;;6.50;92492.00;;;;7369749;19;20140;-82
2024/01/02 13:00:21;;;;;;;0.00;0.00;;;;;6.40;92511.00;;;;7371119;19;20609;-81
2024/01/02 13:02:56;;;;;;;1.03;0.47;;;;;6.40;92513.00;;;;7368625;19;20145;-82
2024/01/02 13:05:27;;;;;;;0.10;0.10;;;;;6.50;92503.00;;;;7366750;19;20194;-81
2024/01/02 13:08:07;;;;;;;0.33;0.20;;;;;6.40;92512.00;;;;7364260;19;20140;-81
2024/01/02 13:10:42;;;;;;;0.27;0.27;;;;;6.40;92512.00;;;;7366558;19;20165;-82
2024/01/02 13:13:10;;;;;;;0.30;0.30;;;;;6.40;92509.00;;;;7372134;19;20605;-82
2024/01/02 13:15:59;;;;;;;0.17;0.17;;;;;6.40;92493.00;;;;7376479;19;20124;-82
2024/01/02 13:18:28;;;;;;;0.20;0.20;;;;;6.40;92497.00;;;;7387807;19;20205;-82